Time;durP1;ratioP1;P1;durP2;ratioP2;P2;SDS_P1;SDS_P2;PMS_P1;PMS_P2;Temp;Humidity;BMP_temperature;BMP_pressure;BME280_temperature;BME280_humidity;BME280_pressure;Samples;Min_cycle;Max_cycle;Signal;HPM_P1;HPM_P2
2023/09/06 00:00:49;;;;;;;17.40;11.60;;;;;;;;;;5094016;28;20077;-59
2023/09/06 00:03:15;;;;;;;19.30;11.88;;;;;;;;;;5094073;28;20095;-57
2023/09/06 00:05:41;;;;;;;20.05;11.77;;;;;;;;;;5092987;28;20081;-61
2023/09/06 00:08:08;;;;;;;19.70;11.00;;;;;;;;;;5094043;28;20031;-59
2023/09/06 00:10:38;;;;;;;17.77;11.57;;;;;;;;;;5093892;28;20032;-61
2023/09/06 00:13:04;;;;;;;18.63;11.43;;;;;;;;;;5093950;28;20020;-60
2023/09/06 00:15:30;;;;;;;16.85;11.07;;;;;;;;;;5092955;28;20064;-59
2023/09/06 00:17:56;;;;;;;16.98;10.90;;;;;;;;;;5093544;28;20055;-61
2023/09/06 00:20:25;;;;;;;18.75;11.00;;;;;;;;;;5093781;28;20056;-59
2023/09/06 00:22:59;;;;;;;16.73;10.48;;;;;;;;;;5092255;28;20479;-60
2023/09/06 00:25:26;;;;;;;17.83;10.90;;;;;;;;;;5092757;28;20024;-59
2023/09/06 00:27:52;;;;;;;19.50;10.55;;;;;;;;;;5093356;28;20099;-58
2023/09/06 00:30:18;;;;;;;17.48;10.63;;;;;;;;;;5093527;28;20042;-59
2023/09/06 00:32:52;;;;;;;16.95;11.02;;;;;;;;;;5093383;28;20031;-58
2023/09/06 00:35:18;;;;;;;18.55;11.10;;;;;;;;;;5092616;28;20120;-61
2023/09/06 00:37:44;;;;;;;17.58;11.68;;;;;;;;;;5093081;28;20048;-57
2023/09/06 00:40:18;;;;;;;20.23;11.77;;;;;;;;;;5091979;28;20069;-58
2023/09/06 00:42:50;;;;;;;15.77;10.68;;;;;;;;;;5093060;28;20020;-58
2023/09/06 00:45:21;;;;;;;17.17;11.27;;;;;;;;;;5092219;28;20024;-59
2023/09/06 00:47:49;;;;;;;15.73;10.55;;;;;;;;;;5093265;28;20016;-61
2023/09/06 00:50:16;;;;;;;16.33;10.57;;;;;;;;;;5091466;28;20429;-61
2023/09/06 00:52:42;;;;;;;16.27;10.93;;;;;;;;;;5092602;28;20089;-59
2023/09/06 00:55:08;;;;;;;17.75;10.55;;;;;;;;;;5090689;28;20032;-60
2023/09/06 00:57:35;;;;;;;17.95;10.95;;;;;;;;;;5092980;28;20020;-60
2023/09/06 01:00:05;;;;;;;18.35;10.88;;;;;;;;;;5091668;28;20036;-58
2023/09/06 01:02:31;;;;;;;17.30;10.65;;;;;;;;;;5092882;28;20027;-57
2023/09/06 01:04:57;;;;;;;18.23;11.00;;;;;;;;;;5091857;28;20032;-57
2023/09/06 01:07:25;;;;;;;16.85;10.45;;;;;;;;;;5092732;28;20032;-60
2023/09/06 01:09:51;;;;;;;16.70;10.32;;;;;;;;;;5092706;28;20031;-59
2023/09/06 01:12:17;;;;;;;17.58;11.32;;;;;;;;;;5095208;28;20020;-58
2023/09/06 01:14:43;;;;;;;18.60;11.52;;;;;;;;;;5094378;28;20082;-60
2023/09/06 01:17:10;;;;;;;18.52;11.05;;;;;;;;;;5092839;28;20032;-62
2023/09/06 01:19:39;;;;;;;18.33;10.70;;;;;;;;;;5091368;28;20031;-58
2023/09/06 01:22:11;;;;;;;23.45;10.90;;;;;;;;;;5092516;28;20672;-58
2023/09/06 01:24:37;;;;;;;18.42;10.60;;;;;;;;;;5091397;28;20031;-58
2023/09/06 01:27:07;;;;;;;18.20;11.02;;;;;;;;;;5092429;28;20017;-59
2023/09/06 01:29:34;;;;;;;18.77;11.48;;;;;;;;;;5092430;28;20024;-61
2023/09/06 01:32:00;;;;;;;18.55;10.95;;;;;;;;;;5092395;28;20607;-58
2023/09/06 01:34:26;;;;;;;17.48;10.90;;;;;;;;;;5091323;28;20043;-59
2023/09/06 01:36:52;;;;;;;15.98;10.68;;;;;;;;;;5092140;28;20085;-61
2023/09/06 01:39:18;;;;;;;19.73;10.35;;;;;;;;;;5092249;28;20019;-61
2023/09/06 01:41:44;;;;;;;18.35;10.90;;;;;;;;;;5090760;28;20575;-61
2023/09/06 01:44:10;;;;;;;16.75;10.50;;;;;;;;;;5089923;28;20097;-60
2023/09/06 01:46:37;;;;;;;16.13;10.65;;;;;;;;;;5092115;28;20039;-61
2023/09/06 01:49:03;;;;;;;16.10;10.20;;;;;;;;;;5092081;28;20022;-60
2023/09/06 01:51:31;;;;;;;17.83;11.18;;;;;;;;;;5090725;28;20059;-61
2023/09/06 01:53:57;;;;;;;17.30;11.48;;;;;;;;;;5091257;28;20016;-61
2023/09/06 01:56:23;;;;;;;17.88;11.13;;;;;;;;;;5091182;28;20081;-61
2023/09/06 01:58:49;;;;;;;17.70;10.77;;;;;;;;;;5091856;28;20573;-59
2023/09/06 02:01:15;;;;;;;16.88;10.65;;;;;;;;;;5091676;28;20036;-59
2023/09/06 02:03:41;;;;;;;19.00;11.00;;;;;;;;;;5089148;28;20066;-57
2023/09/06 02:06:07;;;;;;;18.88;10.73;;;;;;;;;;5090902;28;20482;-59
2023/09/06 02:08:35;;;;;;;18.77;11.25;;;;;;;;;;5091551;28;20021;-58
2023/09/06 02:11:01;;;;;;;18.42;10.30;;;;;;;;;;5090310;28;20020;-61
2023/09/06 02:13:27;;;;;;;17.35;10.98;;;;;;;;;;5090146;28;20032;-58
2023/09/06 02:15:52;;;;;;;17.80;10.45;;;;;;;;;;5090527;28;20082;-59
2023/09/06 02:18:18;;;;;;;16.45;10.55;;;;;;;;;;5091251;28;20063;-61
2023/09/06 02:20:45;;;;;;;18.02;10.48;;;;;;;;;;5091135;28;20031;-59
2023/09/06 02:23:11;;;;;;;19.20;11.13;;;;;;;;;;5091370;28;20030;-59
2023/09/06 02:25:37;;;;;;;17.70;10.73;;;;;;;;;;5090414;28;20073;-58
2023/09/06 02:28:04;;;;;;;18.30;10.73;;;;;;;;;;5089986;28;20028;-59
2023/09/06 02:30:30;;;;;;;17.73;11.57;;;;;;;;;;5091297;28;20043;-61
2023/09/06 02:32:56;;;;;;;18.83;11.05;;;;;;;;;;5090943;28;20016;-59
2023/09/06 02:35:22;;;;;;;17.58;11.35;;;;;;;;;;5090289;28;20032;-57
2023/09/06 02:37:48;;;;;;;18.33;11.68;;;;;;;;;;5090856;28;20031;-59
2023/09/06 02:40:17;;;;;;;19.00;11.10;;;;;;;;;;5090854;28;20024;-59
2023/09/06 02:42:44;;;;;;;18.20;11.52;;;;;;;;;;5091031;28;20369;-61
2023/09/06 02:45:11;;;;;;;18.77;11.48;;;;;;;;;;5089843;28;20392;-61
2023/09/06 02:47:48;;;;;;;18.92;10.90;;;;;;;;;;5090650;28;20028;-61
2023/09/06 02:50:14;;;;;;;17.63;11.43;;;;;;;;;;5089419;28;20451;-61
2023/09/06 02:52:44;;;;;;;18.85;11.10;;;;;;;;;;5090771;28;20020;-58
2023/09/06 02:55:13;;;;;;;18.50;10.90;;;;;;;;;;5089909;28;20032;-61
2023/09/06 02:57:40;;;;;;;18.98;11.40;;;;;;;;;;5090732;28;20024;-58
2023/09/06 03:00:24;;;;;;;23.60;17.40;;;;;;;;;;5089408;28;20123;-58
2023/09/06 03:02:52;;;;;;;20.15;11.80;;;;;;;;;;5090518;28;20381;-59
2023/09/06 03:05:18;;;;;;;18.97;11.40;;;;;;;;;;5089631;28;20110;-60
2023/09/06 03:07:53;;;;;;;17.67;11.73;;;;;;;;;;5090476;28;20110;-60
2023/09/06 03:10:19;;;;;;;18.55;11.68;;;;;;;;;;5090665;28;20016;-61
2023/09/06 03:12:54;;;;;;;16.80;11.23;;;;;;;;;;5090328;28;20066;-61
2023/09/06 03:15:22;;;;;;;17.10;11.40;;;;;;;;;;5089355;28;20032;-59
2023/09/06 03:17:48;;;;;;;18.60;11.52;;;;;;;;;;5090704;28;20035;-61
2023/09/06 03:23:00;;;;;;;17.98;12.63;;;;;;;;;;5094715;28;20028;-59
2023/09/06 03:25:26;;;;;;;18.60;11.87;;;;;;;;;;5090092;28;20047;-60
2023/09/06 03:28:00;;;;;;;18.63;11.95;;;;;;;;;;5090830;28;20742;-61
2023/09/06 03:30:27;;;;;;;16.90;11.35;;;;;;;;;;5090783;28;20482;-60
2023/09/06 03:32:53;;;;;;;20.05;12.45;;;;;;;;;;5089421;28;20024;-61
2023/09/06 03:35:22;;;;;;;19.35;11.55;;;;;;;;;;5089672;28;20028;-60
2023/09/06 03:37:49;;;;;;;;;;;;;;;;;;5090952;28;20020;-58
2023/09/06 03:43:00;;;;;;;19.35;12.43;;;;;;;;;;5088476;28;20031;-55
2023/09/06 03:45:27;;;;;;;19.90;12.45;;;;;;;;;;5089522;28;20028;-61
2023/09/06 03:47:54;;;;;;;21.15;12.55;;;;;;;;;;5090091;28;20535;-59
2023/09/06 03:50:21;;;;;;;23.58;12.10;;;;;;;;;;5090171;28;20012;-58
2023/09/06 03:52:47;;;;;;;19.63;12.73;;;;;;;;;;5090243;28;20031;-59
2023/09/06 03:55:16;;;;;;;20.83;12.85;;;;;;;;;;5089439;28;20039;-58
2023/09/06 03:57:42;;;;;;;18.65;12.23;;;;;;;;;;5090422;28;20113;-60
2023/09/06 04:00:25;;;;;;;18.20;11.70;;;;;;;;;;5088825;28;20534;-61
2023/09/06 04:02:53;;;;;;;20.40;12.82;;;;;;;;;;5090656;28;20503;-59
2023/09/06 04:05:23;;;;;;;19.40;12.32;;;;;;;;;;5089072;28;20020;-59
2023/09/06 04:07:49;;;;;;;20.02;13.52;;;;;;;;;;5088752;28;20020;-61
2023/09/06 04:10:21;;;;;;;18.58;13.05;;;;;;;;;;5090162;28;20081;-60
2023/09/06 04:12:47;;;;;;;20.17;13.00;;;;;;;;;;5090031;28;20508;-57
2023/09/06 04:15:13;;;;;;;19.30;12.85;;;;;;;;;;5089092;28;20107;-61
2023/09/06 04:17:42;;;;;;;20.27;13.02;;;;;;;;;;5090004;28;20465;-58
2023/09/06 04:20:19;;;;;;;19.15;13.63;;;;;;;;;;5088425;28;20036;-61
2023/09/06 04:22:45;;;;;;;18.80;13.25;;;;;;;;;;5088579;28;20391;-60
2023/09/06 04:25:12;;;;;;;20.45;13.93;;;;;;;;;;5087802;28;20050;-61
2023/09/06 04:27:39;;;;;;;18.15;12.90;;;;;;;;;;5092957;28;20523;-59
2023/09/06 04:30:06;;;;;;;19.27;12.88;;;;;;;;;;5093212;28;20511;-60
2023/09/06 04:32:34;;;;;;;20.85;14.20;;;;;;;;;;5093434;28;20028;-60
2023/09/06 04:35:00;;;;;;;21.83;13.47;;;;;;;;;;5092391;28;20481;-60
2023/09/06 04:37:26;;;;;;;21.60;13.50;;;;;;;;;;5093217;28;20064;-60
2023/09/06 04:39:53;;;;;;;20.58;13.15;;;;;;;;;;5093183;28;20031;-60
2023/09/06 04:42:19;;;;;;;18.80;12.85;;;;;;;;;;5093012;28;20028;-58
2023/09/06 04:44:45;;;;;;;22.88;13.80;;;;;;;;;;5092217;28;20526;-59
2023/09/06 04:47:15;;;;;;;22.40;14.00;;;;;;;;;;5093049;28;20020;-57
2023/09/06 04:49:42;;;;;;;26.17;16.17;;;;;;;;;;5092832;28;20456;-60
2023/09/06 04:52:08;;;;;;;26.25;16.05;;;;;;;;;;5091542;28;20024;-60
2023/09/06 04:54:34;;;;;;;25.60;14.77;;;;;;;;;;5091843;28;20039;-58
2023/09/06 04:57:00;;;;;;;21.55;14.35;;;;;;;;;;5092785;28;20534;-58
2023/09/06 04:59:26;;;;;;;22.42;14.07;;;;;;;;;;5092766;28;20032;-57
2023/09/06 05:01:52;;;;;;;22.88;14.40;;;;;;;;;;5092739;28;20016;-59
2023/09/06 05:04:19;;;;;;;22.50;14.50;;;;;;;;;;5091791;28;20115;-60
2023/09/06 05:06:45;;;;;;;22.27;14.55;;;;;;;;;;5091429;28;20028;-59
2023/09/06 05:09:15;;;;;;;26.63;14.52;;;;;;;;;;5092726;28;20020;-64
2023/09/06 05:11:41;;;;;;;21.92;13.65;;;;;;;;;;5092625;28;20030;-62
2023/09/06 05:14:07;;;;;;;20.67;13.52;;;;;;;;;;5091775;28;20445;-59
2023/09/06 05:16:33;;;;;;;22.23;13.80;;;;;;;;;;5092367;28;20035;-59
2023/09/06 05:18:59;;;;;;;21.35;13.75;;;;;;;;;;5092377;28;20089;-61
2023/09/06 05:21:25;;;;;;;25.05;14.23;;;;;;;;;;5091931;28;20043;-61
2023/09/06 05:23:51;;;;;;;25.65;14.32;;;;;;;;;;5092357;28;20032;-58
2023/09/06 05:26:16;;;;;;;30.58;14.88;;;;;;;;;;5091878;28;20395;-56
2023/09/06 05:28:42;;;;;;;39.03;17.02;;;;;;;;;;5094504;28;20035;-58
2023/09/06 05:31:09;;;;;;;36.45;14.90;;;;;;;;;;5093596;28;20036;-59
2023/09/06 05:33:35;;;;;;;26.27;15.95;;;;;;;;;;5090854;28;20016;-60
2023/09/06 05:36:01;;;;;;;22.15;14.02;;;;;;;;;;5091498;28;20080;-60
2023/09/06 05:38:29;;;;;;;24.58;14.13;;;;;;;;;;5091706;28;20024;-62
2023/09/06 05:40:55;;;;;;;23.77;14.43;;;;;;;;;;5091904;28;20077;-59
2023/09/06 05:43:20;;;;;;;26.90;15.50;;;;;;;;;;5090178;28;20024;-60
2023/09/06 05:45:46;;;;;;;31.38;16.45;;;;;;;;;;5091108;28;20040;-55
2023/09/06 05:48:12;;;;;;;24.08;14.93;;;;;;;;;;5091547;28;20082;-59
2023/09/06 05:50:38;;;;;;;24.30;14.02;;;;;;;;;;5091292;28;20114;-60
2023/09/06 05:53:04;;;;;;;25.23;14.50;;;;;;;;;;5091565;28;20016;-61
2023/09/06 05:55:30;;;;;;;21.48;14.05;;;;;;;;;;5103839;22;20048;-52
2023/09/06 05:57:56;;;;;;;21.80;13.30;;;;;;;;;;5091954;28;20070;-53
2023/09/06 06:00:24;;;;;;;21.63;13.63;;;;;;;;;;5092165;28;20039;-55
2023/09/06 06:02:51;;;;;;;21.10;14.23;;;;;;;;;;5091766;28;20030;-53
2023/09/06 06:05:18;;;;;;;21.90;14.13;;;;;;;;;;5090726;28;20044;-55
2023/09/06 06:07:45;;;;;;;22.33;14.07;;;;;;;;;;5091813;28;20455;-54
2023/09/06 06:10:11;;;;;;;20.33;13.82;;;;;;;;;;5092014;28;20027;-53
2023/09/06 06:12:38;;;;;;;21.80;14.55;;;;;;;;;;5091804;28;20024;-54
2023/09/06 06:15:05;;;;;;;20.10;13.57;;;;;;;;;;5090891;28;20024;-53
2023/09/06 06:17:31;;;;;;;21.15;14.15;;;;;;;;;;5089727;28;20167;-52
2023/09/06 06:19:57;;;;;;;21.13;14.07;;;;;;;;;;5088541;28;20502;-51
2023/09/06 06:22:23;;;;;;;19.48;13.68;;;;;;;;;;5089260;28;20032;-51
2023/09/06 06:24:50;;;;;;;20.63;13.10;;;;;;;;;;5079255;28;20028;-52
2023/09/06 06:27:16;;;;;;;20.00;13.50;;;;;;;;;;5070015;28;20075;-55
2023/09/06 06:29:42;;;;;;;18.40;12.93;;;;;;;;;;5087403;28;20028;-57
2023/09/06 06:32:08;;;;;;;19.13;13.07;;;;;;;;;;5090927;28;20425;-55
2023/09/06 06:34:38;;;;;;;20.45;13.13;;;;;;;;;;5090417;28;20123;-56
2023/09/06 06:37:04;;;;;;;20.73;12.10;;;;;;;;;;5091261;28;20052;-56
2023/09/06 06:39:30;;;;;;;17.80;12.55;;;;;;;;;;5091119;28;20035;-53
2023/09/06 06:41:56;;;;;;;22.80;11.90;;;;;;;;;;5091511;28;20021;-56
2023/09/06 06:44:22;;;;;;;17.30;12.10;;;;;;;;;;5090354;28;20097;-56
2023/09/06 06:46:48;;;;;;;20.45;12.73;;;;;;;;;;5091156;28;20024;-53
2023/09/06 06:49:15;;;;;;;22.00;12.77;;;;;;;;;;5090614;28;20020;-54
2023/09/06 06:51:41;;;;;;;20.13;12.63;;;;;;;;;;5091133;28;20034;-55
2023/09/06 06:54:10;;;;;;;21.20;14.13;;;;;;;;;;5084386;28;20380;-56
2023/09/06 06:56:37;;;;;;;23.65;15.60;;;;;;;;;;5069334;28;20060;-52
2023/09/06 06:59:04;;;;;;;18.77;12.32;;;;;;;;;;5070958;28;20024;-56
2023/09/06 07:01:30;;;;;;;19.63;12.20;;;;;;;;;;5070812;28;20031;-56
2023/09/06 07:03:57;;;;;;;20.25;12.10;;;;;;;;;;5070352;28;20048;-55
2023/09/06 07:06:24;;;;;;;22.08;13.13;;;;;;;;;;5070719;28;20085;-56
2023/09/06 07:08:50;;;;;;;22.15;12.55;;;;;;;;;;5071155;28;20481;-55
2023/09/06 07:11:16;;;;;;;18.65;11.48;;;;;;;;;;5070898;28;20023;-52
2023/09/06 07:13:42;;;;;;;20.90;12.00;;;;;;;;;;5071000;28;20028;-54
2023/09/06 07:16:09;;;;;;;17.73;11.77;;;;;;;;;;5068873;28;20024;-52
2023/09/06 07:18:35;;;;;;;17.98;10.90;;;;;;;;;;5070880;28;20025;-50
2023/09/06 07:21:01;;;;;;;21.27;11.60;;;;;;;;;;5070652;28;20112;-52
2023/09/06 07:23:27;;;;;;;18.70;11.18;;;;;;;;;;5070820;28;20059;-53
2023/09/06 07:25:53;;;;;;;18.23;11.88;;;;;;;;;;5070148;28;20484;-51
2023/09/06 07:28:29;;;;;;;21.58;11.43;;;;;;;;;;5070985;28;20070;-52
2023/09/06 07:30:55;;;;;;;17.67;11.45;;;;;;;;;;5070948;28;20048;-50
2023/09/06 07:33:21;;;;;;;15.85;11.80;;;;;;;;;;5070507;28;20069;-57
2023/09/06 07:35:47;;;;;;;16.35;11.95;;;;;;;;;;5069854;28;20024;-57
2023/09/06 07:38:13;;;;;;;17.20;12.00;;;;;;;;;;5070854;28;20361;-54
2023/09/06 07:40:39;;;;;;;20.63;11.73;;;;;;;;;;5070894;28;20047;-52
2023/09/06 07:43:05;;;;;;;17.05;11.73;;;;;;;;;;5070547;28;20091;-55
2023/09/06 07:45:31;;;;;;;18.52;11.63;;;;;;;;;;5069764;28;20127;-56
2023/09/06 07:47:57;;;;;;;17.05;11.80;;;;;;;;;;5070390;28;20059;-52
2023/09/06 07:50:23;;;;;;;15.75;11.45;;;;;;;;;;5070542;28;20064;-54
2023/09/06 07:52:49;;;;;;;17.85;12.27;;;;;;;;;;5070540;28;20027;-53
2023/09/06 07:55:15;;;;;;;17.77;12.52;;;;;;;;;;5084160;28;20036;-51
2023/09/06 07:57:41;;;;;;;17.25;11.90;;;;;;;;;;5070422;28;20032;-54
2023/09/06 08:00:07;;;;;;;18.02;12.27;;;;;;;;;;5071256;28;20036;-50
2023/09/06 08:02:33;;;;;;;18.17;12.38;;;;;;;;;;5074550;28;20025;-56
2023/09/06 08:04:59;;;;;;;20.33;12.98;;;;;;;;;;5073625;28;20035;-50
2023/09/06 08:07:25;;;;;;;20.45;12.75;;;;;;;;;;5074238;28;20105;-56
2023/09/06 08:09:51;;;;;;;15.77;12.18;;;;;;;;;;5074017;28;20055;-52
2023/09/06 08:12:17;;;;;;;16.35;11.98;;;;;;;;;;5074115;28;20056;-55
2023/09/06 08:14:43;;;;;;;16.40;11.93;;;;;;;;;;5073488;28;20093;-53
2023/09/06 08:17:09;;;;;;;16.50;12.13;;;;;;;;;;5073378;28;20522;-56
2023/09/06 08:19:35;;;;;;;22.63;12.18;;;;;;;;;;5073498;28;20050;-41
2023/09/06 08:22:01;;;;;;;17.65;12.70;;;;;;;;;;5073863;28;20033;-47
2023/09/06 08:24:30;;;;;;;21.65;12.50;;;;;;;;;;5073117;28;20028;-47
2023/09/06 08:26:57;;;;;;;18.42;12.82;;;;;;;;;;5073440;28;20020;-45
2023/09/06 08:29:22;;;;;;;18.92;12.20;;;;;;;;;;5072153;28;20017;-43
2023/09/06 08:31:48;;;;;;;15.77;12.00;;;;;;;;;;5073558;28;20436;-43
2023/09/06 08:34:14;;;;;;;16.00;12.35;;;;;;;;;;5072880;28;20024;-45
2023/09/06 08:36:40;;;;;;;16.90;12.52;;;;;;;;;;5073612;28;20460;-52
2023/09/06 08:39:06;;;;;;;15.93;12.40;;;;;;;;;;5073707;28;20063;-55
2023/09/06 08:41:33;;;;;;;17.58;12.18;;;;;;;;;;5073498;28;20079;-56
2023/09/06 08:44:03;;;;;;;17.35;12.40;;;;;;;;;;5071780;28;20440;-52
2023/09/06 08:46:33;;;;;;;16.10;12.40;;;;;;;;;;5073683;28;20028;-54
2023/09/06 08:49:00;;;;;;;16.85;11.98;;;;;;;;;;5072795;28;20071;-56
2023/09/06 08:51:32;;;;;;;17.58;12.77;;;;;;;;;;5071832;28;20070;-56
2023/09/06 08:53:58;;;;;;;16.38;12.85;;;;;;;;;;5072979;28;20024;-56
2023/09/06 08:56:24;;;;;;;17.95;12.20;;;;;;;;;;5072861;28;20507;-56
2023/09/06 08:58:50;;;;;;;18.38;13.57;;;;;;;;;;5073232;28;20330;-57
2023/09/06 09:01:16;;;;;;;17.30;12.55;;;;;;;;;;5073358;28;20035;-56
2023/09/06 09:03:42;;;;;;;17.63;12.55;;;;;;;;;;5071851;28;20028;-57
2023/09/06 09:06:09;;;;;;;16.98;12.57;;;;;;;;;;5070895;28;20055;-57
2023/09/06 09:08:35;;;;;;;18.35;12.88;;;;;;;;;;5071626;28;20097;-56
2023/09/06 09:11:11;;;;;;;17.95;13.30;;;;;;;;;;5073024;28;20108;-55
2023/09/06 09:13:37;;;;;;;17.40;12.88;;;;;;;;;;5073467;28;20028;-52
2023/09/06 09:16:06;;;;;;;17.77;12.70;;;;;;;;;;5072333;28;20062;-57
2023/09/06 09:18:34;;;;;;;17.35;12.80;;;;;;;;;;5072736;28;20012;-54
2023/09/06 09:21:02;;;;;;;16.50;12.77;;;;;;;;;;5072061;28;20384;-52
2023/09/06 09:23:29;;;;;;;16.38;12.80;;;;;;;;;;5072946;28;20025;-55
2023/09/06 09:25:55;;;;;;;17.70;12.85;;;;;;;;;;5071957;28;20111;-55
2023/09/06 09:28:21;;;;;;;16.30;12.88;;;;;;;;;;5073138;28;20048;-56
2023/09/06 09:30:47;;;;;;;16.80;12.93;;;;;;;;;;5072857;28;20028;-53
2023/09/06 09:33:13;;;;;;;17.23;12.82;;;;;;;;;;5072771;28;20483;-56
2023/09/06 09:35:40;;;;;;;16.77;12.88;;;;;;;;;;5071907;28;20029;-54
2023/09/06 09:38:10;;;;;;;16.65;13.25;;;;;;;;;;5071528;28;20062;-52
2023/09/06 09:40:37;;;;;;;16.75;13.43;;;;;;;;;;5072625;28;20029;-55
2023/09/06 09:43:04;;;;;;;18.17;13.25;;;;;;;;;;5071529;28;20101;-55
2023/09/06 09:45:38;;;;;;;17.15;13.20;;;;;;;;;;5070327;28;20313;-57
2023/09/06 09:48:05;;;;;;;16.90;13.13;;;;;;;;;;5071832;28;20028;-59
2023/09/06 09:50:34;;;;;;;17.50;13.05;;;;;;;;;;5072116;28;20048;-54
2023/09/06 09:53:00;;;;;;;16.73;13.10;;;;;;;;;;5072019;28;20028;-54
2023/09/06 09:55:27;;;;;;;16.20;13.23;;;;;;;;;;5069875;28;20029;-53
2023/09/06 09:57:55;;;;;;;16.48;13.10;;;;;;;;;;5071875;28;20031;-56
2023/09/06 10:00:30;;;;;;;18.30;12.82;;;;;;;;;;5072272;28;20024;-52
2023/09/06 10:03:00;;;;;;;17.25;13.52;;;;;;;;;;5072104;28;20495;-55
2023/09/06 10:05:26;;;;;;;16.30;13.63;;;;;;;;;;5070273;28;20028;-57
2023/09/06 10:07:55;;;;;;;17.10;13.70;;;;;;;;;;5068829;28;20557;-55
2023/09/06 10:10:21;;;;;;;16.40;13.50;;;;;;;;;;5070144;28;20529;-56
2023/09/06 10:12:49;;;;;;;16.45;13.15;;;;;;;;;;5070162;28;20029;-56
2023/09/06 10:15:19;;;;;;;17.65;14.32;;;;;;;;;;5069159;28;20031;-55
2023/09/06 10:17:46;;;;;;;16.35;13.38;;;;;;;;;;5069717;28;20032;-55
2023/09/06 10:20:12;;;;;;;17.15;14.30;;;;;;;;;;5075296;28;20074;-54
2023/09/06 10:22:48;;;;;;;16.90;13.73;;;;;;;;;;5091190;28;20062;-56
2023/09/06 10:25:18;;;;;;;16.75;14.23;;;;;;;;;;5089182;28;20035;-55
2023/09/06 10:27:51;;;;;;;17.30;14.15;;;;;;;;;;5091253;28;20077;-54
2023/09/06 10:30:28;;;;;;;17.08;13.85;;;;;;;;;;5091240;28;20055;-54
2023/09/06 10:32:54;;;;;;;17.70;13.70;;;;;;;;;;5091743;28;20444;-53
2023/09/06 10:35:29;;;;;;;17.75;13.90;;;;;;;;;;5090497;28;20431;-52
2023/09/06 10:38:10;;;;;;;17.98;13.95;;;;;;;;;;5089691;28;20111;-54
2023/09/06 10:40:51;;;;;;;16.58;13.15;;;;;;;;;;5091048;28;20457;-57
2023/09/06 10:43:19;;;;;;;17.58;14.15;;;;;;;;;;5091033;28;20031;-56
2023/09/06 10:46:03;;;;;;;17.35;14.27;;;;;;;;;;5090561;28;20111;-57
2023/09/06 10:48:29;;;;;;;17.60;13.70;;;;;;;;;;5089995;28;20020;-57
2023/09/06 10:51:08;;;;;;;17.42;13.48;;;;;;;;;;5091037;28;20028;-57
2023/09/06 10:53:35;;;;;;;17.52;14.68;;;;;;;;;;5091022;28;20337;-55
2023/09/06 10:56:02;;;;;;;18.33;14.35;;;;;;;;;;5090151;28;20474;-56
2023/09/06 10:58:32;;;;;;;17.27;14.13;;;;;;;;;;5091145;28;20059;-54
2023/09/06 11:01:24;;;;;;;17.58;14.73;;;;;;;;;;5090777;28;20102;-58
2023/09/06 11:03:54;;;;;;;18.77;14.35;;;;;;;;;;5088507;28;20044;-54
2023/09/06 11:06:24;;;;;;;17.60;13.98;;;;;;;;;;5091149;28;20048;-58
2023/09/06 11:08:50;;;;;;;17.35;14.07;;;;;;;;;;5089989;28;20434;-58
2023/09/06 11:11:16;;;;;;;16.58;14.18;;;;;;;;;;5091138;28;20078;-55
2023/09/06 11:13:44;;;;;;;17.05;14.50;;;;;;;;;;5091164;28;20473;-57
2023/09/06 11:16:15;;;;;;;16.70;14.02;;;;;;;;;;5088722;28;20077;-58
2023/09/06 11:18:49;;;;;;;18.95;14.38;;;;;;;;;;5090859;28;20391;-57
2023/09/06 11:21:23;;;;;;;17.85;13.88;;;;;;;;;;5090655;28;20054;-58
2023/09/06 11:23:52;;;;;;;16.95;14.10;;;;;;;;;;5070204;28;20032;-58
2023/09/06 11:26:22;;;;;;;18.38;14.68;;;;;;;;;;5069023;28;20060;-58
2023/09/06 11:28:48;;;;;;;16.92;13.82;;;;;;;;;;5070685;28;20028;-58
2023/09/06 11:31:22;;;;;;;18.73;14.27;;;;;;;;;;5070747;28;20477;-58
2023/09/06 11:33:55;;;;;;;20.45;15.20;;;;;;;;;;5070657;28;20443;-58
2023/09/06 11:36:21;;;;;;;18.05;15.30;;;;;;;;;;5073633;28;20036;-58
2023/09/06 11:38:47;;;;;;;17.23;14.75;;;;;;;;;;5074742;28;20476;-57
2023/09/06 11:41:15;;;;;;;16.88;14.70;;;;;;;;;;5074948;28;20047;-58
2023/09/06 11:43:46;;;;;;;18.58;15.40;;;;;;;;;;5075031;28;20523;-57
2023/09/06 11:46:14;;;;;;;18.33;15.15;;;;;;;;;;5073981;28;20435;-58
2023/09/06 11:48:41;;;;;;;18.30;14.88;;;;;;;;;;5074814;28;20043;-58
2023/09/06 11:51:10;;;;;;;18.08;15.73;;;;;;;;;;5074572;28;20480;-57
2023/09/06 11:53:45;;;;;;;20.00;15.30;;;;;;;;;;5074741;28;20151;-58
2023/09/06 11:56:13;;;;;;;18.63;15.95;;;;;;;;;;5074378;28;20036;-57
2023/09/06 11:58:49;;;;;;;17.60;15.70;;;;;;;;;;5073375;28;20055;-57
2023/09/06 12:01:22;;;;;;;18.00;15.93;;;;;;;;;;5073348;28;20020;-56
2023/09/06 12:03:48;;;;;;;17.88;15.68;;;;;;;;;;5074293;28;20028;-56
2023/09/06 12:06:14;;;;;;;18.10;16.10;;;;;;;;;;4724028;28;10000486;-56
2023/09/06 12:08:41;;;;;;;18.30;16.30;;;;;;;;;;5079306;28;20112;-57
2023/09/06 12:11:20;;;;;;;20.90;17.73;;;;;;;;;;5080088;28;20039;-57
2023/09/06 12:13:46;;;;;;;17.90;16.00;;;;;;;;;;5090850;28;20484;-58
2023/09/06 12:16:12;;;;;;;17.58;15.65;;;;;;;;;;5073428;28;20090;-58
2023/09/06 12:18:39;;;;;;;17.17;15.32;;;;;;;;;;5070282;28;20453;-57
2023/09/06 12:21:05;;;;;;;17.83;15.55;;;;;;;;;;5070713;28;20128;-58
2023/09/06 12:23:32;;;;;;;17.03;15.23;;;;;;;;;;5080957;28;20099;-59
2023/09/06 12:26:02;;;;;;;17.60;15.70;;;;;;;;;;5069733;28;20509;-55
2023/09/06 12:28:28;;;;;;;17.73;15.82;;;;;;;;;;5069248;28;20064;-58
2023/09/06 12:30:55;;;;;;;17.23;15.43;;;;;;;;;;5070095;28;20020;-59
2023/09/06 12:33:22;;;;;;;17.25;15.15;;;;;;;;;;5070174;28;20104;-59
2023/09/06 12:35:58;;;;;;;17.35;15.55;;;;;;;;;;5069775;28;20037;-56
2023/09/06 12:38:24;;;;;;;18.38;15.95;;;;;;;;;;5070565;28;20048;-59
2023/09/06 12:40:50;;;;;;;18.42;15.82;;;;;;;;;;5078288;28;20059;-58
2023/09/06 12:43:16;;;;;;;18.17;16.27;;;;;;;;;;5094359;28;20088;-60
2023/09/06 12:45:42;;;;;;;17.70;15.43;;;;;;;;;;5097765;28;20519;-57
2023/09/06 12:48:08;;;;;;;18.27;16.27;;;;;;;;;;5092815;28;20043;-54
2023/09/06 12:50:34;;;;;;;19.58;15.95;;;;;;;;;;5090552;28;20085;-51
2023/09/06 12:53:00;;;;;;;18.38;16.02;;;;;;;;;;5088947;28;20020;-54
2023/09/06 12:55:26;;;;;;;18.30;16.27;;;;;;;;;;5089462;28;20028;-53
2023/09/06 12:57:52;;;;;;;19.52;16.27;;;;;;;;;;5071958;28;20306;-54
2023/09/06 13:00:18;;;;;;;19.02;16.20;;;;;;;;;;5083545;28;20036;-55
2023/09/06 13:02:44;;;;;;;19.20;15.75;;;;;;;;;;5072928;28;20108;-54
2023/09/06 13:05:11;;;;;;;18.17;16.27;;;;;;;;;;4731157;28;10000030;-53
2023/09/06 13:07:37;;;;;;;18.25;16.35;;;;;;;;;;5090082;28;20030;-54
2023/09/06 13:10:06;;;;;;;17.52;15.73;;;;;;;;;;5089907;28;20043;-55
2023/09/06 13:12:32;;;;;;;17.88;15.98;;;;;;;;;;5090046;28;20032;-55
2023/09/06 13:14:58;;;;;;;17.65;15.77;;;;;;;;;;5088915;28;20032;-55
2023/09/06 13:17:25;;;;;;;18.42;16.52;;;;;;;;;;5088655;28;20028;-56
2023/09/06 13:19:52;;;;;;;17.80;16.00;;;;;;;;;;5091460;28;20028;-55
2023/09/06 13:22:18;;;;;;;18.83;16.73;;;;;;;;;;5091404;28;20081;-53
2023/09/06 13:24:44;;;;;;;18.27;16.27;;;;;;;;;;5090304;28;20438;-54
2023/09/06 13:27:10;;;;;;;22.00;16.70;;;;;;;;;;5090938;28;20048;-55
2023/09/06 13:29:36;;;;;;;18.70;15.98;;;;;;;;;;5090704;28;20059;-54
2023/09/06 13:32:06;;;;;;;17.08;15.27;;;;;;;;;;5090835;28;20028;-54
2023/09/06 13:34:33;;;;;;;18.27;16.38;;;;;;;;;;5090283;28;20111;-53
2023/09/06 13:36:59;;;;;;;18.08;16.17;;;;;;;;;;5092435;28;20032;-53
2023/09/06 13:39:25;;;;;;;17.55;15.40;;;;;;;;;;5092185;28;20073;-54
2023/09/06 13:41:51;;;;;;;19.40;15.83;;;;;;;;;;5092482;28;20442;-50
2023/09/06 13:44:17;;;;;;;18.33;15.80;;;;;;;;;;5091742;28;20610;-51
2023/09/06 14:02:03;;;;;;;18.13;16.20;;;;;;;;;;5076045;28;20035;-53
2023/09/06 14:04:29;;;;;;;18.27;16.00;;;;;;;;;;5067046;28;20874;-56
2023/09/06 14:06:55;;;;;;;17.80;15.90;;;;;;;;;;5068438;28;20031;-54
2023/09/06 14:09:22;;;;;;;18.73;16.00;;;;;;;;;;5087736;28;20024;-53
2023/09/06 14:11:48;;;;;;;18.25;15.35;;;;;;;;;;5088711;28;20102;-53
2023/09/06 14:14:14;;;;;;;17.95;16.05;;;;;;;;;;5087962;28;20028;-55
2023/09/06 14:16:40;;;;;;;17.65;15.80;;;;;;;;;;5087768;28;20035;-51
2023/09/06 14:19:06;;;;;;;18.23;16.33;;;;;;;;;;5088027;28;20439;-52
2023/09/06 14:21:33;;;;;;;18.45;15.95;;;;;;;;;;5088137;28;20016;-50
2023/09/06 14:23:59;;;;;;;18.20;16.30;;;;;;;;;;5086197;28;20023;-55
2023/09/06 14:26:26;;;;;;;27.42;16.95;;;;;;;;;;5087862;28;20020;-55
2023/09/06 14:28:52;;;;;;;19.08;16.00;;;;;;;;;;5086350;28;20071;-56
2023/09/06 14:31:18;;;;;;;18.50;15.90;;;;;;;;;;5087730;28;20069;-53
2023/09/06 14:33:45;;;;;;;20.27;15.80;;;;;;;;;;5086440;28;20273;-56
2023/09/06 14:36:11;;;;;;;17.90;16.00;;;;;;;;;;5086484;28;20407;-54
2023/09/06 14:38:37;;;;;;;20.60;16.60;;;;;;;;;;5077325;28;20029;-54